sensor_id;sensor_type;location;lat;lon;timestamp;P1;durP1;ratioP1;P2;durP2;ratioP2
36185;SDS011;22228;53.222;7.446;2024-02-04T00:01:52;16.07;;;5.83;;
36185;SDS011;22228;53.222;7.446;2024-02-04T00:05:12;16.03;;;4.97;;
36185;SDS011;22228;53.222;7.446;2024-02-04T00:08:34;12.87;;;5.70;;
36185;SDS011;22228;53.222;7.446;2024-02-04T00:11:54;16.40;;;5.57;;
36185;SDS011;22228;53.222;7.446;2024-02-04T00:15:17;15.13;;;6.60;;
36185;SDS011;22228;53.222;7.446;2024-02-04T00:18:37;16.53;;;6.30;;
36185;SDS011;22228;53.222;7.446;2024-02-04T00:21:58;16.87;;;5.93;;
36185;SDS011;22228;53.222;7.446;2024-02-04T00:25:20;17.77;;;6.40;;
36185;SDS011;22228;53.222;7.446;2024-02-04T00:28:40;15.07;;;6.03;;
36185;SDS011;22228;53.222;7.446;2024-02-04T00:32:01;16.57;;;6.70;;
36185;SDS011;22228;53.222;7.446;2024-02-04T00:35:22;14.50;;;7.27;;
36185;SDS011;22228;53.222;7.446;2024-02-04T00:38:42;19.67;;;7.23;;
36185;SDS011;22228;53.222;7.446;2024-02-04T00:42:04;19.77;;;6.90;;
36185;SDS011;22228;53.222;7.446;2024-02-04T00:45:25;21.87;;;7.07;;
36185;SDS011;22228;53.222;7.446;2024-02-04T00:48:45;17.00;;;7.10;;
36185;SDS011;22228;53.222;7.446;2024-02-04T00:52:06;14.37;;;6.57;;
36185;SDS011;22228;53.222;7.446;2024-02-04T00:55:26;14.93;;;6.70;;
36185;SDS011;22228;53.222;7.446;2024-02-04T00:58:48;16.23;;;7.20;;
36185;SDS011;22228;53.222;7.446;2024-02-04T01:02:08;13.07;;;6.50;;
36185;SDS011;22228;53.222;7.446;2024-02-04T01:05:29;17.70;;;6.60;;
36185;SDS011;22228;53.222;7.446;2024-02-04T01:08:49;15.97;;;6.43;;
36185;SDS011;22228;53.222;7.446;2024-02-04T01:12:10;19.57;;;7.37;;
36185;SDS011;22228;53.222;7.446;2024-02-04T04:02:18;13.13;;;2.33;;
36185;SDS011;22228;53.222;7.446;2024-02-04T04:05:39;13.00;;;2.73;;
36185;SDS011;22228;53.222;7.446;2024-02-04T04:08:59;19.43;;;2.70;;
36185;SDS011;22228;53.222;7.446;2024-02-04T04:12:19;12.50;;;2.80;;
36185;SDS011;22228;53.222;7.446;2024-02-04T04:15:40;7.87;;;1.67;;
36185;SDS011;22228;53.222;7.446;2024-02-04T04:19:02;10.13;;;2.23;;
36185;SDS011;22228;53.222;7.446;2024-02-04T04:22:23;11.00;;;2.30;;
36185;SDS011;22228;53.222;7.446;2024-02-04T04:25:43;19.10;;;3.47;;
36185;SDS011;22228;53.222;7.446;2024-02-04T04:29:04;13.40;;;2.60;;
36185;SDS011;22228;53.222;7.446;2024-02-04T04:32:24;8.60;;;2.67;;
36185;SDS011;22228;53.222;7.446;2024-02-04T04:35:46;15.07;;;2.30;;
36185;SDS011;22228;53.222;7.446;2024-02-04T04:39:06;10.77;;;2.70;;
36185;SDS011;22228;53.222;7.446;2024-02-04T04:42:27;9.20;;;2.50;;
36185;SDS011;22228;53.222;7.446;2024-02-04T04:45:47;13.17;;;2.20;;
36185;SDS011;22228;53.222;7.446;2024-02-04T04:49:09;11.13;;;2.97;;
36185;SDS011;22228;53.222;7.446;2024-02-04T04:52:30;13.43;;;2.97;;
36185;SDS011;22228;53.222;7.446;2024-02-04T04:55:51;12.07;;;2.73;;
36185;SDS011;22228;53.222;7.446;2024-02-04T04:59:11;10.13;;;2.80;;
36185;SDS011;22228;53.222;7.446;2024-02-04T05:02:32;17.57;;;3.83;;
36185;SDS011;22228;53.222;7.446;2024-02-04T05:05:53;12.17;;;3.27;;
36185;SDS011;22228;53.222;7.446;2024-02-04T05:09:14;9.87;;;2.40;;
36185;SDS011;22228;53.222;7.446;2024-02-04T05:12:35;11.07;;;2.73;;
36185;SDS011;22228;53.222;7.446;2024-02-04T05:15:56;13.20;;;2.90;;
36185;SDS011;22228;53.222;7.446;2024-02-04T05:19:16;12.67;;;2.80;;
36185;SDS011;22228;53.222;7.446;2024-02-04T05:22:36;11.27;;;2.60;;
36185;SDS011;22228;53.222;7.446;2024-02-04T05:25:58;9.33;;;2.70;;
36185;SDS011;22228;53.222;7.446;2024-02-04T05:29:22;11.40;;;3.13;;
36185;SDS011;22228;53.222;7.446;2024-02-04T05:32:43;7.40;;;2.20;;
36185;SDS011;22228;53.222;7.446;2024-02-04T05:36:03;13.43;;;2.60;;
36185;SDS011;22228;53.222;7.446;2024-02-04T05:39:24;14.03;;;2.73;;
36185;SDS011;22228;53.222;7.446;2024-02-04T05:42:46;14.90;;;4.37;;
36185;SDS011;22228;53.222;7.446;2024-02-04T05:46:06;8.93;;;2.40;;
36185;SDS011;22228;53.222;7.446;2024-02-04T05:49:27;10.77;;;3.03;;
36185;SDS011;22228;53.222;7.446;2024-02-04T05:52:47;14.80;;;3.33;;
36185;SDS011;22228;53.222;7.446;2024-02-04T05:56:08;12.33;;;4.20;;
36185;SDS011;22228;53.222;7.446;2024-02-04T05:59:29;14.80;;;3.20;;
36185;SDS011;22228;53.222;7.446;2024-02-04T06:02:50;15.97;;;3.43;;
36185;SDS011;22228;53.222;7.446;2024-02-04T06:06:13;10.23;;;2.70;;
36185;SDS011;22228;53.222;7.446;2024-02-04T06:09:35;19.67;;;3.50;;
36185;SDS011;22228;53.222;7.446;2024-02-04T06:12:55;19.40;;;4.17;;
36185;SDS011;22228;53.222;7.446;2024-02-04T06:16:17;15.67;;;3.77;;
36185;SDS011;22228;53.222;7.446;2024-02-04T06:19:37;14.67;;;3.90;;
36185;SDS011;22228;53.222;7.446;2024-02-04T06:22:58;18.73;;;5.30;;
36185;SDS011;22228;53.222;7.446;2024-02-04T06:26:19;16.43;;;4.73;;
36185;SDS011;22228;53.222;7.446;2024-02-04T06:29:40;16.23;;;4.57;;
36185;SDS011;22228;53.222;7.446;2024-02-04T06:33:02;19.73;;;4.23;;
36185;SDS011;22228;53.222;7.446;2024-02-04T06:36:22;17.20;;;3.90;;
36185;SDS011;22228;53.222;7.446;2024-02-04T06:39:43;13.07;;;3.30;;
36185;SDS011;22228;53.222;7.446;2024-02-04T06:43:04;8.67;;;3.27;;
36185;SDS011;22228;53.222;7.446;2024-02-04T06:46:24;14.27;;;3.27;;
36185;SDS011;22228;53.222;7.446;2024-02-04T06:49:47;16.00;;;3.27;;
36185;SDS011;22228;53.222;7.446;2024-02-04T06:53:07;11.67;;;3.60;;
36185;SDS011;22228;53.222;7.446;2024-02-04T06:56:28;10.30;;;3.07;;
36185;SDS011;22228;53.222;7.446;2024-02-04T06:59:48;19.30;;;3.17;;
36185;SDS011;22228;53.222;7.446;2024-02-04T07:03:09;11.73;;;3.10;;
36185;SDS011;22228;53.222;7.446;2024-02-04T07:06:31;8.40;;;2.77;;
36185;SDS011;22228;53.222;7.446;2024-02-04T07:09:51;8.67;;;2.77;;
36185;SDS011;22228;53.222;7.446;2024-02-04T07:13:11;12.20;;;2.80;;
36185;SDS011;22228;53.222;7.446;2024-02-04T07:16:33;8.90;;;2.20;;
36185;SDS011;22228;53.222;7.446;2024-02-04T07:19:54;11.27;;;2.43;;
36185;SDS011;22228;53.222;7.446;2024-02-04T07:23:16;10.23;;;2.20;;
36185;SDS011;22228;53.222;7.446;2024-02-04T07:26:36;8.20;;;2.07;;
36185;SDS011;22228;53.222;7.446;2024-02-04T07:29:57;8.67;;;2.60;;
36185;SDS011;22228;53.222;7.446;2024-02-04T07:33:17;10.77;;;2.80;;
36185;SDS011;22228;53.222;7.446;2024-02-04T07:36:38;12.43;;;2.40;;
36185;SDS011;22228;53.222;7.446;2024-02-04T07:39:59;12.60;;;3.00;;
36185;SDS011;22228;53.222;7.446;2024-02-04T07:43:21;8.63;;;2.53;;
36185;SDS011;22228;53.222;7.446;2024-02-04T07:46:41;10.80;;;2.67;;
36185;SDS011;22228;53.222;7.446;2024-02-04T07:50:02;16.73;;;2.70;;
36185;SDS011;22228;53.222;7.446;2024-02-04T07:53:22;9.43;;;2.87;;
36185;SDS011;22228;53.222;7.446;2024-02-04T07:56:44;11.40;;;2.80;;
36185;SDS011;22228;53.222;7.446;2024-02-04T08:00:05;14.30;;;3.33;;
36185;SDS011;22228;53.222;7.446;2024-02-04T08:03:32;17.17;;;2.87;;
36185;SDS011;22228;53.222;7.446;2024-02-04T08:06:53;11.87;;;2.37;;
36185;SDS011;22228;53.222;7.446;2024-02-04T08:10:14;11.27;;;1.90;;
36185;SDS011;22228;53.222;7.446;2024-02-04T08:13:36;13.00;;;2.97;;
36185;SDS011;22228;53.222;7.446;2024-02-04T08:16:57;18.00;;;2.77;;
36185;SDS011;22228;53.222;7.446;2024-02-04T08:20:17;12.93;;;2.50;;
36185;SDS011;22228;53.222;7.446;2024-02-04T08:23:38;11.87;;;2.07;;
36185;SDS011;22228;53.222;7.446;2024-02-04T08:26:59;16.30;;;2.70;;
36185;SDS011;22228;53.222;7.446;2024-02-04T08:30:21;13.27;;;2.33;;
36185;SDS011;22228;53.222;7.446;2024-02-04T08:33:41;13.80;;;2.40;;
36185;SDS011;22228;53.222;7.446;2024-02-04T08:37:02;7.90;;;2.47;;
36185;SDS011;22228;53.222;7.446;2024-02-04T08:40:22;14.37;;;3.97;;
36185;SDS011;22228;53.222;7.446;2024-02-04T08:43:43;17.00;;;3.00;;
36185;SDS011;22228;53.222;7.446;2024-02-04T08:47:05;12.37;;;2.40;;
36185;SDS011;22228;53.222;7.446;2024-02-04T08:50:28;12.07;;;2.77;;
36185;SDS011;22228;53.222;7.446;2024-02-04T08:53:49;13.40;;;2.77;;
36185;SDS011;22228;53.222;7.446;2024-02-04T08:57:09;6.10;;;2.17;;
36185;SDS011;22228;53.222;7.446;2024-02-04T09:00:30;11.87;;;2.43;;
36185;SDS011;22228;53.222;7.446;2024-02-04T09:03:51;14.07;;;2.87;;
36185;SDS011;22228;53.222;7.446;2024-02-04T09:07:12;11.30;;;1.73;;
36185;SDS011;22228;53.222;7.446;2024-02-04T09:10:33;10.60;;;1.83;;
36185;SDS011;22228;53.222;7.446;2024-02-04T09:13:53;12.73;;;2.20;;
36185;SDS011;22228;53.222;7.446;2024-02-04T09:17:13;12.07;;;3.03;;
36185;SDS011;22228;53.222;7.446;2024-02-04T09:20:35;10.97;;;3.13;;
36185;SDS011;22228;53.222;7.446;2024-02-04T09:23:56;9.17;;;2.23;;
36185;SDS011;22228;53.222;7.446;2024-02-04T09:27:17;10.20;;;2.67;;
36185;SDS011;22228;53.222;7.446;2024-02-04T09:30:38;12.87;;;2.20;;
36185;SDS011;22228;53.222;7.446;2024-02-04T09:33:58;6.50;;;2.30;;
36185;SDS011;22228;53.222;7.446;2024-02-04T09:37:20;10.13;;;2.10;;
36185;SDS011;22228;53.222;7.446;2024-02-04T09:40:41;11.30;;;2.40;;
36185;SDS011;22228;53.222;7.446;2024-02-04T09:44:01;10.43;;;3.10;;
36185;SDS011;22228;53.222;7.446;2024-02-04T09:47:24;10.20;;;2.87;;
36185;SDS011;22228;53.222;7.446;2024-02-04T09:50:45;9.03;;;2.57;;
36185;SDS011;22228;53.222;7.446;2024-02-04T09:54:07;10.67;;;2.37;;
36185;SDS011;22228;53.222;7.446;2024-02-04T09:57:30;8.30;;;2.30;;
36185;SDS011;22228;53.222;7.446;2024-02-04T10:00:51;7.43;;;2.50;;
36185;SDS011;22228;53.222;7.446;2024-02-04T10:04:13;11.10;;;2.67;;
36185;SDS011;22228;53.222;7.446;2024-02-04T10:07:34;16.63;;;2.67;;
36185;SDS011;22228;53.222;7.446;2024-02-04T10:10:56;7.90;;;2.70;;
36185;SDS011;22228;53.222;7.446;2024-02-04T10:14:17;8.83;;;1.90;;
36185;SDS011;22228;53.222;7.446;2024-02-04T10:17:41;9.17;;;2.37;;
36185;SDS011;22228;53.222;7.446;2024-02-04T10:21:02;10.10;;;2.10;;
36185;SDS011;22228;53.222;7.446;2024-02-04T10:24:22;9.33;;;2.20;;
36185;SDS011;22228;53.222;7.446;2024-02-04T10:27:44;8.57;;;2.63;;
36185;SDS011;22228;53.222;7.446;2024-02-04T10:31:06;9.77;;;2.23;;
36185;SDS011;22228;53.222;7.446;2024-02-04T10:34:28;8.43;;;2.23;;
36185;SDS011;22228;53.222;7.446;2024-02-04T10:37:48;6.27;;;2.30;;
36185;SDS011;22228;53.222;7.446;2024-02-04T10:41:10;8.70;;;2.93;;
36185;SDS011;22228;53.222;7.446;2024-02-04T10:44:36;10.90;;;2.03;;
36185;SDS011;22228;53.222;7.446;2024-02-04T10:47:59;7.90;;;2.43;;
36185;SDS011;22228;53.222;7.446;2024-02-04T10:51:23;9.90;;;2.57;;
36185;SDS011;22228;53.222;7.446;2024-02-04T10:54:44;13.53;;;2.80;;
36185;SDS011;22228;53.222;7.446;2024-02-04T10:58:06;7.30;;;2.27;;
36185;SDS011;22228;53.222;7.446;2024-02-04T11:01:28;8.33;;;1.47;;
36185;SDS011;22228;53.222;7.446;2024-02-04T11:04:49;9.53;;;1.90;;
36185;SDS011;22228;53.222;7.446;2024-02-04T11:08:10;9.47;;;1.77;;
36185;SDS011;22228;53.222;7.446;2024-02-04T11:11:31;5.20;;;1.97;;
36185;SDS011;22228;53.222;7.446;2024-02-04T11:14:53;7.00;;;2.00;;
36185;SDS011;22228;53.222;7.446;2024-02-04T11:22:11;6.67;;;2.40;;
36185;SDS011;22228;53.222;7.446;2024-02-04T11:25:42;9.33;;;2.07;;
36185;SDS011;22228;53.222;7.446;2024-02-04T11:29:05;6.83;;;1.80;;
36185;SDS011;22228;53.222;7.446;2024-02-04T11:32:25;10.40;;;1.87;;
36185;SDS011;22228;53.222;7.446;2024-02-04T11:35:57;9.03;;;1.73;;
36185;SDS011;22228;53.222;7.446;2024-02-04T11:39:18;9.03;;;2.20;;
36185;SDS011;22228;53.222;7.446;2024-02-04T11:42:40;6.73;;;1.53;;
36185;SDS011;22228;53.222;7.446;2024-02-04T11:46:02;5.57;;;1.50;;
36185;SDS011;22228;53.222;7.446;2024-02-04T11:49:24;11.53;;;1.80;;
36185;SDS011;22228;53.222;7.446;2024-02-04T11:52:46;8.10;;;1.87;;
36185;SDS011;22228;53.222;7.446;2024-02-04T11:56:07;9.53;;;1.70;;
36185;SDS011;22228;53.222;7.446;2024-02-04T11:59:28;8.60;;;1.53;;
36185;SDS011;22228;53.222;7.446;2024-02-04T12:02:59;9.60;;;2.20;;
36185;SDS011;22228;53.222;7.446;2024-02-04T12:06:20;8.50;;;2.80;;
36185;SDS011;22228;53.222;7.446;2024-02-04T12:09:42;6.97;;;1.77;;
36185;SDS011;22228;53.222;7.446;2024-02-04T12:13:03;6.73;;;1.50;;
36185;SDS011;22228;53.222;7.446;2024-02-04T12:16:25;6.57;;;1.63;;
36185;SDS011;22228;53.222;7.446;2024-02-04T12:19:45;9.57;;;1.40;;
36185;SDS011;22228;53.222;7.446;2024-02-04T12:23:06;7.23;;;1.60;;
36185;SDS011;22228;53.222;7.446;2024-02-04T12:26:28;11.23;;;1.83;;
36185;SDS011;22228;53.222;7.446;2024-02-04T12:29:50;6.37;;;1.20;;
36185;SDS011;22228;53.222;7.446;2024-02-04T12:33:11;6.83;;;1.27;;
36185;SDS011;22228;53.222;7.446;2024-02-04T12:36:32;7.73;;;1.17;;
36185;SDS011;22228;53.222;7.446;2024-02-04T12:39:53;7.70;;;1.63;;
36185;SDS011;22228;53.222;7.446;2024-02-04T12:43:14;8.20;;;1.10;;
36185;SDS011;22228;53.222;7.446;2024-02-04T12:46:35;4.40;;;1.03;;
36185;SDS011;22228;53.222;7.446;2024-02-04T12:49:59;10.60;;;1.67;;
36185;SDS011;22228;53.222;7.446;2024-02-04T12:53:20;6.50;;;1.80;;
36185;SDS011;22228;53.222;7.446;2024-02-04T12:56:42;10.80;;;2.03;;
36185;SDS011;22228;53.222;7.446;2024-02-04T13:00:06;7.40;;;1.50;;
36185;SDS011;22228;53.222;7.446;2024-02-04T13:03:27;7.23;;;1.63;;
36185;SDS011;22228;53.222;7.446;2024-02-04T13:06:48;10.00;;;1.57;;
36185;SDS011;22228;53.222;7.446;2024-02-04T13:10:09;6.57;;;1.20;;
36185;SDS011;22228;53.222;7.446;2024-02-04T13:13:33;7.67;;;1.87;;
36185;SDS011;22228;53.222;7.446;2024-02-04T13:16:55;8.80;;;1.83;;
36185;SDS011;22228;53.222;7.446;2024-02-04T13:20:15;5.87;;;1.83;;
36185;SDS011;22228;53.222;7.446;2024-02-04T13:23:35;8.57;;;1.50;;
36185;SDS011;22228;53.222;7.446;2024-02-04T13:26:56;4.67;;;1.60;;
36185;SDS011;22228;53.222;7.446;2024-02-04T13:30:18;5.07;;;2.00;;
36185;SDS011;22228;53.222;7.446;2024-02-04T13:33:40;6.23;;;1.33;;
36185;SDS011;22228;53.222;7.446;2024-02-04T13:37:01;11.83;;;4.83;;
36185;SDS011;22228;53.222;7.446;2024-02-04T13:40:22;7.60;;;1.37;;
36185;SDS011;22228;53.222;7.446;2024-02-04T13:43:43;4.40;;;1.30;;
36185;SDS011;22228;53.222;7.446;2024-02-04T13:47:03;7.57;;;1.50;;
36185;SDS011;22228;53.222;7.446;2024-02-04T13:50:25;11.80;;;2.33;;
36185;SDS011;22228;53.222;7.446;2024-02-04T13:53:46;4.87;;;1.70;;
36185;SDS011;22228;53.222;7.446;2024-02-04T13:57:06;7.67;;;1.87;;
36185;SDS011;22228;53.222;7.446;2024-02-04T14:00:26;6.10;;;1.23;;
36185;SDS011;22228;53.222;7.446;2024-02-04T14:03:47;3.50;;;0.87;;
36185;SDS011;22228;53.222;7.446;2024-02-04T14:07:09;7.27;;;1.67;;
36185;SDS011;22228;53.222;7.446;2024-02-04T14:10:30;5.53;;;1.10;;
36185;SDS011;22228;53.222;7.446;2024-02-04T14:13:50;5.60;;;1.60;;
36185;SDS011;22228;53.222;7.446;2024-02-04T14:17:11;4.70;;;0.93;;
36185;SDS011;22228;53.222;7.446;2024-02-04T14:20:31;6.23;;;1.10;;
36185;SDS011;22228;53.222;7.446;2024-02-04T14:23:53;6.77;;;1.27;;
36185;SDS011;22228;53.222;7.446;2024-02-04T14:27:14;8.07;;;1.10;;
36185;SDS011;22228;53.222;7.446;2024-02-04T14:30:34;9.07;;;2.43;;
36185;SDS011;22228;53.222;7.446;2024-02-04T14:33:55;7.67;;;1.50;;
36185;SDS011;22228;53.222;7.446;2024-02-04T14:37:15;5.97;;;1.10;;
36185;SDS011;22228;53.222;7.446;2024-02-04T14:40:37;6.53;;;1.33;;
36185;SDS011;22228;53.222;7.446;2024-02-04T14:43:58;6.10;;;1.30;;
36185;SDS011;22228;53.222;7.446;2024-02-04T14:47:18;5.13;;;1.20;;
36185;SDS011;22228;53.222;7.446;2024-02-04T14:50:39;5.03;;;1.00;;
36185;SDS011;22228;53.222;7.446;2024-02-04T14:53:59;7.40;;;1.07;;
36185;SDS011;22228;53.222;7.446;2024-02-04T14:57:21;6.47;;;1.30;;
36185;SDS011;22228;53.222;7.446;2024-02-04T15:00:42;6.27;;;1.53;;
36185;SDS011;22228;53.222;7.446;2024-02-04T15:04:02;5.93;;;1.53;;
36185;SDS011;22228;53.222;7.446;2024-02-04T15:07:23;5.03;;;1.17;;
36185;SDS011;22228;53.222;7.446;2024-02-04T15:10:43;2.50;;;1.30;;
36185;SDS011;22228;53.222;7.446;2024-02-04T15:14:06;5.70;;;1.10;;
36185;SDS011;22228;53.222;7.446;2024-02-04T15:17:27;6.40;;;1.23;;
36185;SDS011;22228;53.222;7.446;2024-02-04T15:20:48;3.23;;;1.07;;
36185;SDS011;22228;53.222;7.446;2024-02-04T15:24:10;4.83;;;1.20;;
36185;SDS011;22228;53.222;7.446;2024-02-04T15:27:32;6.57;;;1.50;;
36185;SDS011;22228;53.222;7.446;2024-02-04T15:30:55;5.73;;;2.00;;
36185;SDS011;22228;53.222;7.446;2024-02-04T15:34:15;3.73;;;1.53;;
36185;SDS011;22228;53.222;7.446;2024-02-04T15:37:36;3.40;;;1.67;;
36185;SDS011;22228;53.222;7.446;2024-02-04T15:40:57;5.37;;;1.77;;
36185;SDS011;22228;53.222;7.446;2024-02-04T15:44:17;5.80;;;1.80;;
36185;SDS011;22228;53.222;7.446;2024-02-04T15:47:40;4.27;;;1.63;;
36185;SDS011;22228;53.222;7.446;2024-02-04T15:51:08;4.83;;;1.90;;
36185;SDS011;22228;53.222;7.446;2024-02-04T15:54:29;6.47;;;1.70;;
36185;SDS011;22228;53.222;7.446;2024-02-04T15:57:55;6.20;;;2.04;;
36185;SDS011;22228;53.222;7.446;2024-02-04T16:01:19;7.73;;;1.60;;
36185;SDS011;22228;53.222;7.446;2024-02-04T16:04:44;7.17;;;2.43;;
36185;SDS011;22228;53.222;7.446;2024-02-04T16:08:05;5.80;;;2.00;;
36185;SDS011;22228;53.222;7.446;2024-02-04T16:11:30;2.43;;;1.80;;
36185;SDS011;22228;53.222;7.446;2024-02-04T16:15:02;9.80;;;2.23;;
36185;SDS011;22228;53.222;7.446;2024-02-04T16:18:24;6.47;;;2.43;;
36185;SDS011;22228;53.222;7.446;2024-02-04T16:21:46;7.10;;;2.40;;
36185;SDS011;22228;53.222;7.446;2024-02-04T16:25:07;5.17;;;3.23;;
36185;SDS011;22228;53.222;7.446;2024-02-04T16:28:28;4.27;;;2.50;;
36185;SDS011;22228;53.222;7.446;2024-02-04T16:31:48;5.70;;;2.30;;
36185;SDS011;22228;53.222;7.446;2024-02-04T16:35:11;3.57;;;2.30;;
36185;SDS011;22228;53.222;7.446;2024-02-04T16:38:33;5.40;;;4.70;;
36185;SDS011;22228;53.222;7.446;2024-02-04T16:41:54;3.70;;;2.30;;
36185;SDS011;22228;53.222;7.446;2024-02-04T16:45:15;6.67;;;3.70;;
36185;SDS011;22228;53.222;7.446;2024-02-04T16:48:35;4.03;;;2.97;;
36185;SDS011;22228;53.222;7.446;2024-02-04T16:51:56;5.00;;;2.50;;
36185;SDS011;22228;53.222;7.446;2024-02-04T16:55:18;8.00;;;3.03;;
36185;SDS011;22228;53.222;7.446;2024-02-04T16:58:38;6.47;;;2.90;;
36185;SDS011;22228;53.222;7.446;2024-02-04T17:01:58;6.50;;;3.57;;
36185;SDS011;22228;53.222;7.446;2024-02-04T17:05:19;5.27;;;3.70;;
36185;SDS011;22228;53.222;7.446;2024-02-04T17:08:41;7.17;;;3.83;;
36185;SDS011;22228;53.222;7.446;2024-02-04T17:12:04;5.60;;;3.97;;
36185;SDS011;22228;53.222;7.446;2024-02-04T17:15:25;6.17;;;3.93;;
36185;SDS011;22228;53.222;7.446;2024-02-04T17:18:48;7.03;;;4.03;;
36185;SDS011;22228;53.222;7.446;2024-02-04T17:22:13;5.60;;;4.23;;
36185;SDS011;22228;53.222;7.446;2024-02-04T17:25:37;7.27;;;5.03;;
36185;SDS011;22228;53.222;7.446;2024-02-04T17:29:01;3.73;;;3.43;;
36185;SDS011;22228;53.222;7.446;2024-02-04T17:32:22;6.43;;;4.50;;
36185;SDS011;22228;53.222;7.446;2024-02-04T17:35:44;7.30;;;4.70;;
36185;SDS011;22228;53.222;7.446;2024-02-04T17:39:07;4.70;;;4.30;;
36185;SDS011;22228;53.222;7.446;2024-02-04T17:42:30;3.63;;;3.23;;
36185;SDS011;22228;53.222;7.446;2024-02-04T17:45:52;4.40;;;4.00;;
36185;SDS011;22228;53.222;7.446;2024-02-04T17:49:12;4.20;;;3.77;;
36185;SDS011;22228;53.222;7.446;2024-02-04T17:52:34;5.93;;;5.13;;
36185;SDS011;22228;53.222;7.446;2024-02-04T17:55:54;4.47;;;3.90;;
36185;SDS011;22228;53.222;7.446;2024-02-04T17:59:15;5.07;;;4.57;;
36185;SDS011;22228;53.222;7.446;2024-02-04T18:02:37;5.23;;;4.77;;
36185;SDS011;22228;53.222;7.446;2024-02-04T18:05:58;5.53;;;5.03;;
36185;SDS011;22228;53.222;7.446;2024-02-04T18:09:19;6.23;;;5.63;;
36185;SDS011;22228;53.222;7.446;2024-02-04T18:12:40;6.30;;;5.70;;
36185;SDS011;22228;53.222;7.446;2024-02-04T18:16:04;4.70;;;4.30;;
36185;SDS011;22228;53.222;7.446;2024-02-04T18:19:26;4.70;;;4.30;;
36185;SDS011;22228;53.222;7.446;2024-02-04T18:22:46;4.50;;;4.10;;
36185;SDS011;22228;53.222;7.446;2024-02-04T18:26:16;4.87;;;4.40;;
36185;SDS011;22228;53.222;7.446;2024-02-04T18:29:39;5.37;;;4.13;;
36185;SDS011;22228;53.222;7.446;2024-02-04T18:32:59;4.93;;;4.47;;
36185;SDS011;22228;53.222;7.446;2024-02-04T18:36:21;6.30;;;5.63;;
36185;SDS011;22228;53.222;7.446;2024-02-04T18:39:43;8.10;;;7.17;;
36185;SDS011;22228;53.222;7.446;2024-02-04T18:43:03;9.27;;;8.43;;
36185;SDS011;22228;53.222;7.446;2024-02-04T18:46:24;8.50;;;7.67;;
36185;SDS011;22228;53.222;7.446;2024-02-04T18:49:44;8.67;;;7.57;;
36185;SDS011;22228;53.222;7.446;2024-02-04T18:53:06;11.87;;;9.93;;
36185;SDS011;22228;53.222;7.446;2024-02-04T18:56:27;12.17;;;10.33;;
36185;SDS011;22228;53.222;7.446;2024-02-04T18:59:48;14.07;;;12.13;;
36185;SDS011;22228;53.222;7.446;2024-02-04T19:03:08;14.50;;;9.17;;
36185;SDS011;22228;53.222;7.446;2024-02-04T19:06:29;13.03;;;9.00;;
36185;SDS011;22228;53.222;7.446;2024-02-04T19:09:51;10.87;;;9.33;;
36185;SDS011;22228;53.222;7.446;2024-02-04T19:13:11;16.33;;;9.40;;
36185;SDS011;22228;53.222;7.446;2024-02-04T19:16:32;13.20;;;9.67;;
36185;SDS011;22228;53.222;7.446;2024-02-04T19:19:52;15.80;;;10.17;;
36185;SDS011;22228;53.222;7.446;2024-02-04T19:23:13;12.63;;;8.70;;
36185;SDS011;22228;53.222;7.446;2024-02-04T19:26:35;13.50;;;9.00;;
36185;SDS011;22228;53.222;7.446;2024-02-04T19:29:56;11.43;;;8.97;;
36185;SDS011;22228;53.222;7.446;2024-02-04T19:33:16;11.10;;;8.37;;
36185;SDS011;22228;53.222;7.446;2024-02-04T19:36:37;10.07;;;8.33;;
36185;SDS011;22228;53.222;7.446;2024-02-04T19:39:58;17.10;;;8.33;;
36185;SDS011;22228;53.222;7.446;2024-02-04T19:43:19;17.13;;;7.10;;
36185;SDS011;22228;53.222;7.446;2024-02-04T19:46:40;15.70;;;7.27;;
36185;SDS011;22228;53.222;7.446;2024-02-04T19:50:00;11.60;;;5.37;;
36185;SDS011;22228;53.222;7.446;2024-02-04T19:53:22;10.67;;;4.83;;
36185;SDS011;22228;53.222;7.446;2024-02-04T19:56:43;9.43;;;4.77;;
36185;SDS011;22228;53.222;7.446;2024-02-04T20:00:06;10.57;;;4.83;;
36185;SDS011;22228;53.222;7.446;2024-02-04T20:03:29;8.63;;;4.13;;
36185;SDS011;22228;53.222;7.446;2024-02-04T20:06:50;10.97;;;4.30;;
36185;SDS011;22228;53.222;7.446;2024-02-04T20:10:10;7.60;;;3.97;;
36185;SDS011;22228;53.222;7.446;2024-02-04T20:13:31;5.80;;;3.67;;
36185;SDS011;22228;53.222;7.446;2024-02-04T20:16:57;10.33;;;4.00;;
36185;SDS011;22228;53.222;7.446;2024-02-04T20:20:17;9.43;;;4.50;;
36185;SDS011;22228;53.222;7.446;2024-02-04T20:23:38;7.63;;;3.37;;
36185;SDS011;22228;53.222;7.446;2024-02-04T20:26:58;12.57;;;3.43;;
36185;SDS011;22228;53.222;7.446;2024-02-04T20:30:19;9.10;;;3.27;;
36185;SDS011;22228;53.222;7.446;2024-02-04T20:33:44;8.30;;;3.10;;
36185;SDS011;22228;53.222;7.446;2024-02-04T20:37:05;8.80;;;2.73;;
36185;SDS011;22228;53.222;7.446;2024-02-04T20:40:26;9.77;;;2.37;;
36185;SDS011;22228;53.222;7.446;2024-02-04T20:43:46;5.90;;;2.60;;
36185;SDS011;22228;53.222;7.446;2024-02-04T20:47:07;5.87;;;2.30;;
36185;SDS011;22228;53.222;7.446;2024-02-04T20:50:28;5.63;;;1.90;;
36185;SDS011;22228;53.222;7.446;2024-02-04T20:53:49;9.10;;;2.17;;
36185;SDS011;22228;53.222;7.446;2024-02-04T20:57:09;6.63;;;1.80;;
36185;SDS011;22228;53.222;7.446;2024-02-04T21:00:30;7.27;;;2.00;;
36185;SDS011;22228;53.222;7.446;2024-02-04T21:03:51;8.20;;;2.17;;
36185;SDS011;22228;53.222;7.446;2024-02-04T21:07:13;7.60;;;2.23;;
36185;SDS011;22228;53.222;7.446;2024-02-04T21:10:33;7.53;;;2.00;;
36185;SDS011;22228;53.222;7.446;2024-02-04T21:13:54;6.50;;;2.00;;
36185;SDS011;22228;53.222;7.446;2024-02-04T21:17:16;7.27;;;1.90;;
36185;SDS011;22228;53.222;7.446;2024-02-04T21:20:39;9.13;;;1.73;;
36185;SDS011;22228;53.222;7.446;2024-02-04T21:24:01;8.67;;;1.80;;
36185;SDS011;22228;53.222;7.446;2024-02-04T21:27:21;7.47;;;2.43;;
36185;SDS011;22228;53.222;7.446;2024-02-04T21:30:42;6.30;;;1.80;;
36185;SDS011;22228;53.222;7.446;2024-02-04T21:34:02;6.90;;;1.63;;
36185;SDS011;22228;53.222;7.446;2024-02-04T21:37:23;9.30;;;1.70;;
36185;SDS011;22228;53.222;7.446;2024-02-04T21:40:45;8.97;;;2.20;;
36185;SDS011;22228;53.222;7.446;2024-02-04T21:44:05;8.17;;;1.87;;
36185;SDS011;22228;53.222;7.446;2024-02-04T21:47:26;6.70;;;2.17;;
36185;SDS011;22228;53.222;7.446;2024-02-04T21:50:47;5.40;;;1.63;;
36185;SDS011;22228;53.222;7.446;2024-02-04T21:54:08;12.53;;;2.53;;
36185;SDS011;22228;53.222;7.446;2024-02-04T21:57:29;8.43;;;2.20;;
36185;SDS011;22228;53.222;7.446;2024-02-04T22:00:50;10.00;;;2.20;;
36185;SDS011;22228;53.222;7.446;2024-02-04T22:04:11;9.10;;;2.37;;
36185;SDS011;22228;53.222;7.446;2024-02-04T22:07:34;9.57;;;2.23;;
36185;SDS011;22228;53.222;7.446;2024-02-04T22:10:55;9.27;;;1.93;;
36185;SDS011;22228;53.222;7.446;2024-02-04T22:14:17;5.67;;;1.97;;
36185;SDS011;22228;53.222;7.446;2024-02-04T22:17:38;7.80;;;2.33;;
36185;SDS011;22228;53.222;7.446;2024-02-04T22:20:58;11.93;;;2.50;;
36185;SDS011;22228;53.222;7.446;2024-02-04T22:24:19;12.53;;;2.50;;
36185;SDS011;22228;53.222;7.446;2024-02-04T22:27:39;10.47;;;2.27;;
36185;SDS011;22228;53.222;7.446;2024-02-04T22:31:01;9.13;;;3.10;;
36185;SDS011;22228;53.222;7.446;2024-02-04T22:34:22;11.50;;;2.57;;
36185;SDS011;22228;53.222;7.446;2024-02-04T22:37:42;10.50;;;3.13;;
36185;SDS011;22228;53.222;7.446;2024-02-04T22:41:03;13.63;;;2.63;;
36185;SDS011;22228;53.222;7.446;2024-02-04T22:44:23;13.53;;;3.53;;
36185;SDS011;22228;53.222;7.446;2024-02-04T22:47:45;8.70;;;4.00;;
36185;SDS011;22228;53.222;7.446;2024-02-04T22:51:05;20.17;;;3.93;;
36185;SDS011;22228;53.222;7.446;2024-02-04T22:54:26;13.33;;;4.50;;